sensor_id;sensor_type;location;lat;lon;timestamp;P1;durP1;ratioP1;P2;durP2;ratioP2
5460;SDS011;2753;49.196;8.286;2022-12-11T00:00:00;90.97;;;38.27;;
5460;SDS011;2753;49.196;8.286;2022-12-11T00:02:27;95.40;;;38.40;;
5460;SDS011;2753;49.196;8.286;2022-12-11T00:04:53;105.70;;;35.30;;
5460;SDS011;2753;49.196;8.286;2022-12-11T00:07:19;102.73;;;36.17;;
5460;SDS011;2753;49.196;8.286;2022-12-11T00:09:44;82.40;;;33.57;;
5460;SDS011;2753;49.196;8.286;2022-12-11T00:12:10;83.13;;;35.37;;
5460;SDS011;2753;49.196;8.286;2022-12-11T00:14:36;89.67;;;35.17;;
5460;SDS011;2753;49.196;8.286;2022-12-11T00:17:01;93.37;;;35.83;;
5460;SDS011;2753;49.196;8.286;2022-12-11T00:19:27;84.90;;;35.60;;
5460;SDS011;2753;49.196;8.286;2022-12-11T00:21:53;80.60;;;32.90;;
5460;SDS011;2753;49.196;8.286;2022-12-11T00:24:19;78.43;;;32.80;;
5460;SDS011;2753;49.196;8.286;2022-12-11T00:26:44;78.90;;;29.43;;
5460;SDS011;2753;49.196;8.286;2022-12-11T00:29:10;62.80;;;27.47;;
5460;SDS011;2753;49.196;8.286;2022-12-11T00:31:39;54.00;;;25.77;;
5460;SDS011;2753;49.196;8.286;2022-12-11T00:34:06;54.57;;;24.50;;
5460;SDS011;2753;49.196;8.286;2022-12-11T00:36:32;49.47;;;23.20;;
5460;SDS011;2753;49.196;8.286;2022-12-11T00:38:59;52.50;;;23.60;;
5460;SDS011;2753;49.196;8.286;2022-12-11T00:41:26;51.33;;;24.63;;
5460;SDS011;2753;49.196;8.286;2022-12-11T00:43:52;50.50;;;22.40;;
5460;SDS011;2753;49.196;8.286;2022-12-11T00:46:18;48.60;;;24.20;;
5460;SDS011;2753;49.196;8.286;2022-12-11T00:48:43;49.57;;;21.57;;
5460;SDS011;2753;49.196;8.286;2022-12-11T00:51:10;48.70;;;21.00;;
5460;SDS011;2753;49.196;8.286;2022-12-11T00:53:37;60.60;;;23.20;;
5460;SDS011;2753;49.196;8.286;2022-12-11T00:56:17;48.33;;;21.87;;
5460;SDS011;2753;49.196;8.286;2022-12-11T00:58:45;44.13;;;22.00;;
5460;SDS011;2753;49.196;8.286;2022-12-11T01:01:13;53.33;;;21.83;;
5460;SDS011;2753;49.196;8.286;2022-12-11T01:03:41;54.60;;;24.77;;
5460;SDS011;2753;49.196;8.286;2022-12-11T01:06:07;49.73;;;24.00;;
5460;SDS011;2753;49.196;8.286;2022-12-11T01:08:36;43.13;;;22.90;;
5460;SDS011;2753;49.196;8.286;2022-12-11T01:11:06;42.30;;;22.27;;
5460;SDS011;2753;49.196;8.286;2022-12-11T01:13:34;58.70;;;22.57;;
5460;SDS011;2753;49.196;8.286;2022-12-11T01:16:04;47.13;;;23.20;;
5460;SDS011;2753;49.196;8.286;2022-12-11T01:18:37;53.93;;;23.03;;
5460;SDS011;2753;49.196;8.286;2022-12-11T01:21:04;48.27;;;22.53;;
5460;SDS011;2753;49.196;8.286;2022-12-11T01:23:35;47.03;;;20.63;;
5460;SDS011;2753;49.196;8.286;2022-12-11T01:26:09;42.40;;;18.80;;
5460;SDS011;2753;49.196;8.286;2022-12-11T01:28:38;41.00;;;18.90;;
5460;SDS011;2753;49.196;8.286;2022-12-11T01:31:08;43.83;;;18.77;;
5460;SDS011;2753;49.196;8.286;2022-12-11T01:33:34;39.60;;;17.30;;
5460;SDS011;2753;49.196;8.286;2022-12-11T01:36:00;42.33;;;18.60;;
5460;SDS011;2753;49.196;8.286;2022-12-11T01:38:30;40.33;;;18.80;;
5460;SDS011;2753;49.196;8.286;2022-12-11T01:40:56;44.50;;;18.23;;
5460;SDS011;2753;49.196;8.286;2022-12-11T01:43:21;44.00;;;18.83;;
5460;SDS011;2753;49.196;8.286;2022-12-11T01:45:47;43.83;;;21.60;;
5460;SDS011;2753;49.196;8.286;2022-12-11T01:48:14;54.77;;;23.43;;
5460;SDS011;2753;49.196;8.286;2022-12-11T01:51:06;48.40;;;21.73;;
5460;SDS011;2753;49.196;8.286;2022-12-11T01:53:36;56.43;;;22.37;;
5460;SDS011;2753;49.196;8.286;2022-12-11T01:56:05;39.07;;;19.30;;
5460;SDS011;2753;49.196;8.286;2022-12-11T01:58:34;34.73;;;18.00;;
5460;SDS011;2753;49.196;8.286;2022-12-11T02:01:04;38.33;;;17.60;;
5460;SDS011;2753;49.196;8.286;2022-12-11T02:03:30;41.30;;;19.60;;
5460;SDS011;2753;49.196;8.286;2022-12-11T02:05:59;43.43;;;21.40;;
5460;SDS011;2753;49.196;8.286;2022-12-11T02:08:26;46.13;;;18.50;;
5460;SDS011;2753;49.196;8.286;2022-12-11T02:11:07;29.80;;;16.20;;
5460;SDS011;2753;49.196;8.286;2022-12-11T02:13:47;40.63;;;20.30;;
5460;SDS011;2753;49.196;8.286;2022-12-11T02:16:45;41.03;;;19.97;;
5460;SDS011;2753;49.196;8.286;2022-12-11T02:19:30;80.73;;;26.17;;
5460;SDS011;2753;49.196;8.286;2022-12-11T02:25:30;28.17;;;14.67;;
5460;SDS011;2753;49.196;8.286;2022-12-11T02:30:54;24.80;;;13.37;;
5460;SDS011;2753;49.196;8.286;2022-12-11T02:33:29;29.57;;;13.43;;
5460;SDS011;2753;49.196;8.286;2022-12-11T02:36:06;32.47;;;15.50;;
5460;SDS011;2753;49.196;8.286;2022-12-11T02:38:35;30.83;;;15.57;;
5460;SDS011;2753;49.196;8.286;2022-12-11T02:41:06;26.90;;;14.23;;
5460;SDS011;2753;49.196;8.286;2022-12-11T02:43:34;20.63;;;12.33;;
5460;SDS011;2753;49.196;8.286;2022-12-11T02:46:02;24.13;;;13.27;;
5460;SDS011;2753;49.196;8.286;2022-12-11T02:48:30;28.90;;;15.20;;
5460;SDS011;2753;49.196;8.286;2022-12-11T02:50:57;26.57;;;13.90;;
5460;SDS011;2753;49.196;8.286;2022-12-11T02:53:26;36.73;;;14.40;;
5460;SDS011;2753;49.196;8.286;2022-12-11T02:56:00;28.60;;;14.10;;
5460;SDS011;2753;49.196;8.286;2022-12-11T02:58:47;31.50;;;15.17;;
5460;SDS011;2753;49.196;8.286;2022-12-11T03:01:18;29.83;;;15.90;;
5460;SDS011;2753;49.196;8.286;2022-12-11T03:03:44;33.93;;;16.20;;
5460;SDS011;2753;49.196;8.286;2022-12-11T03:06:10;35.40;;;15.80;;
5460;SDS011;2753;49.196;8.286;2022-12-11T03:08:42;40.20;;;15.57;;
5460;SDS011;2753;49.196;8.286;2022-12-11T03:11:11;35.03;;;17.00;;
5460;SDS011;2753;49.196;8.286;2022-12-11T03:13:38;43.07;;;17.87;;
5460;SDS011;2753;49.196;8.286;2022-12-11T03:16:50;39.57;;;16.83;;
5460;SDS011;2753;49.196;8.286;2022-12-11T03:24:03;44.07;;;17.30;;
5460;SDS011;2753;49.196;8.286;2022-12-11T03:26:41;36.90;;;18.30;;
5460;SDS011;2753;49.196;8.286;2022-12-11T03:29:18;39.30;;;16.07;;
5460;SDS011;2753;49.196;8.286;2022-12-11T03:31:52;41.00;;;17.13;;
5460;SDS011;2753;49.196;8.286;2022-12-11T03:34:42;35.97;;;15.93;;
5460;SDS011;2753;49.196;8.286;2022-12-11T03:37:15;33.80;;;16.03;;
5460;SDS011;2753;49.196;8.286;2022-12-11T03:39:49;40.63;;;18.13;;
5460;SDS011;2753;49.196;8.286;2022-12-11T03:42:18;39.10;;;18.37;;
5460;SDS011;2753;49.196;8.286;2022-12-11T03:44:46;40.77;;;18.50;;
5460;SDS011;2753;49.196;8.286;2022-12-11T03:47:15;36.27;;;17.70;;
5460;SDS011;2753;49.196;8.286;2022-12-11T03:49:44;42.10;;;19.10;;
5460;SDS011;2753;49.196;8.286;2022-12-11T03:52:13;40.03;;;16.63;;
5460;SDS011;2753;49.196;8.286;2022-12-11T03:54:40;38.70;;;19.97;;
5460;SDS011;2753;49.196;8.286;2022-12-11T03:57:08;44.30;;;18.83;;
5460;SDS011;2753;49.196;8.286;2022-12-11T03:59:37;44.20;;;19.23;;
5460;SDS011;2753;49.196;8.286;2022-12-11T04:02:03;40.20;;;19.20;;
5460;SDS011;2753;49.196;8.286;2022-12-11T04:04:38;36.10;;;17.53;;
5460;SDS011;2753;49.196;8.286;2022-12-11T04:07:05;41.77;;;18.63;;
5460;SDS011;2753;49.196;8.286;2022-12-11T04:09:31;42.37;;;20.50;;
5460;SDS011;2753;49.196;8.286;2022-12-11T04:11:57;54.10;;;20.57;;
5460;SDS011;2753;49.196;8.286;2022-12-11T04:14:23;42.37;;;18.73;;
5460;SDS011;2753;49.196;8.286;2022-12-11T04:17:07;53.97;;;22.00;;
5460;SDS011;2753;49.196;8.286;2022-12-11T04:19:33;46.70;;;20.57;;
5460;SDS011;2753;49.196;8.286;2022-12-11T04:22:25;50.90;;;20.40;;
5460;SDS011;2753;49.196;8.286;2022-12-11T04:25:10;56.87;;;20.90;;
5460;SDS011;2753;49.196;8.286;2022-12-11T04:27:35;48.10;;;21.40;;
5460;SDS011;2753;49.196;8.286;2022-12-11T04:30:14;52.53;;;21.20;;
5460;SDS011;2753;49.196;8.286;2022-12-11T04:32:42;47.80;;;22.10;;
5460;SDS011;2753;49.196;8.286;2022-12-11T04:35:09;48.47;;;21.37;;
5460;SDS011;2753;49.196;8.286;2022-12-11T04:37:35;37.87;;;18.50;;
5460;SDS011;2753;49.196;8.286;2022-12-11T04:40:03;51.43;;;22.60;;
5460;SDS011;2753;49.196;8.286;2022-12-11T04:42:30;58.40;;;23.60;;
5460;SDS011;2753;49.196;8.286;2022-12-11T04:44:56;51.47;;;21.60;;
5460;SDS011;2753;49.196;8.286;2022-12-11T04:47:21;47.03;;;19.80;;
5460;SDS011;2753;49.196;8.286;2022-12-11T04:49:47;50.97;;;20.17;;
5460;SDS011;2753;49.196;8.286;2022-12-11T04:52:13;50.13;;;21.67;;
5460;SDS011;2753;49.196;8.286;2022-12-11T04:54:38;49.13;;;20.77;;
5460;SDS011;2753;49.196;8.286;2022-12-11T04:57:04;47.57;;;21.47;;
5460;SDS011;2753;49.196;8.286;2022-12-11T04:59:31;47.17;;;19.67;;
5460;SDS011;2753;49.196;8.286;2022-12-11T05:01:57;51.80;;;23.90;;
5460;SDS011;2753;49.196;8.286;2022-12-11T05:04:22;47.27;;;20.77;;
5460;SDS011;2753;49.196;8.286;2022-12-11T05:06:48;56.03;;;22.57;;
5460;SDS011;2753;49.196;8.286;2022-12-11T05:09:14;56.13;;;22.73;;
5460;SDS011;2753;49.196;8.286;2022-12-11T05:11:40;47.27;;;21.60;;
5460;SDS011;2753;49.196;8.286;2022-12-11T05:14:06;48.00;;;21.10;;
5460;SDS011;2753;49.196;8.286;2022-12-11T05:16:32;55.13;;;22.77;;
5460;SDS011;2753;49.196;8.286;2022-12-11T05:18:58;52.93;;;22.27;;
5460;SDS011;2753;49.196;8.286;2022-12-11T05:21:24;47.30;;;20.80;;
5460;SDS011;2753;49.196;8.286;2022-12-11T05:23:50;58.93;;;24.77;;
5460;SDS011;2753;49.196;8.286;2022-12-11T05:26:16;70.53;;;26.43;;
5460;SDS011;2753;49.196;8.286;2022-12-11T05:28:43;54.83;;;25.20;;
5460;SDS011;2753;49.196;8.286;2022-12-11T05:31:14;61.67;;;24.83;;
5460;SDS011;2753;49.196;8.286;2022-12-11T05:33:42;60.30;;;24.03;;
5460;SDS011;2753;49.196;8.286;2022-12-11T05:36:09;71.97;;;25.60;;
5460;SDS011;2753;49.196;8.286;2022-12-11T05:38:40;62.80;;;26.20;;
5460;SDS011;2753;49.196;8.286;2022-12-11T05:41:06;70.83;;;26.17;;
5460;SDS011;2753;49.196;8.286;2022-12-11T05:43:33;53.70;;;22.47;;
5460;SDS011;2753;49.196;8.286;2022-12-11T05:46:13;66.07;;;28.37;;
5460;SDS011;2753;49.196;8.286;2022-12-11T05:48:47;70.90;;;29.40;;
5460;SDS011;2753;49.196;8.286;2022-12-11T05:51:15;70.90;;;28.27;;
5460;SDS011;2753;49.196;8.286;2022-12-11T05:53:42;78.30;;;29.17;;
5460;SDS011;2753;49.196;8.286;2022-12-11T05:56:13;67.17;;;26.10;;
5460;SDS011;2753;49.196;8.286;2022-12-11T05:58:41;67.30;;;27.33;;
5460;SDS011;2753;49.196;8.286;2022-12-11T06:01:09;70.57;;;29.70;;
5460;SDS011;2753;49.196;8.286;2022-12-11T06:03:36;70.43;;;27.17;;
5460;SDS011;2753;49.196;8.286;2022-12-11T06:06:05;64.63;;;27.60;;
5460;SDS011;2753;49.196;8.286;2022-12-11T06:08:32;67.10;;;26.93;;
5460;SDS011;2753;49.196;8.286;2022-12-11T06:10:58;73.67;;;28.70;;
5460;SDS011;2753;49.196;8.286;2022-12-11T06:13:24;79.87;;;33.57;;
5460;SDS011;2753;49.196;8.286;2022-12-11T06:15:50;66.93;;;30.63;;
5460;SDS011;2753;49.196;8.286;2022-12-11T06:18:16;79.77;;;28.37;;
5460;SDS011;2753;49.196;8.286;2022-12-11T06:20:42;74.90;;;25.70;;
5460;SDS011;2753;49.196;8.286;2022-12-11T06:23:07;71.43;;;28.60;;
5460;SDS011;2753;49.196;8.286;2022-12-11T06:25:33;81.00;;;30.47;;
5460;SDS011;2753;49.196;8.286;2022-12-11T06:27:59;77.50;;;32.57;;
5460;SDS011;2753;49.196;8.286;2022-12-11T06:30:25;66.20;;;26.87;;
5460;SDS011;2753;49.196;8.286;2022-12-11T06:32:51;87.33;;;30.60;;
5460;SDS011;2753;49.196;8.286;2022-12-11T06:35:16;82.80;;;34.63;;
5460;SDS011;2753;49.196;8.286;2022-12-11T06:37:42;82.90;;;29.80;;
5460;SDS011;2753;49.196;8.286;2022-12-11T06:40:08;70.53;;;27.23;;
5460;SDS011;2753;49.196;8.286;2022-12-11T06:42:36;78.53;;;27.57;;
5460;SDS011;2753;49.196;8.286;2022-12-11T06:45:02;75.30;;;28.33;;
5460;SDS011;2753;49.196;8.286;2022-12-11T06:47:29;81.20;;;30.17;;
5460;SDS011;2753;49.196;8.286;2022-12-11T06:49:55;81.10;;;28.77;;
5460;SDS011;2753;49.196;8.286;2022-12-11T06:52:21;70.40;;;27.40;;
5460;SDS011;2753;49.196;8.286;2022-12-11T06:54:48;75.90;;;29.37;;
5460;SDS011;2753;49.196;8.286;2022-12-11T06:57:14;75.50;;;29.67;;
5460;SDS011;2753;49.196;8.286;2022-12-11T06:59:40;75.63;;;27.50;;
5460;SDS011;2753;49.196;8.286;2022-12-11T07:02:07;74.53;;;27.40;;
5460;SDS011;2753;49.196;8.286;2022-12-11T07:04:37;79.47;;;28.93;;
5460;SDS011;2753;49.196;8.286;2022-12-11T07:07:03;82.93;;;27.57;;
5460;SDS011;2753;49.196;8.286;2022-12-11T07:09:28;82.57;;;29.20;;
5460;SDS011;2753;49.196;8.286;2022-12-11T07:11:54;73.13;;;26.97;;
5460;SDS011;2753;49.196;8.286;2022-12-11T07:14:19;75.83;;;26.83;;
5460;SDS011;2753;49.196;8.286;2022-12-11T07:16:45;92.10;;;34.67;;
5460;SDS011;2753;49.196;8.286;2022-12-11T07:19:11;84.77;;;31.47;;
5460;SDS011;2753;49.196;8.286;2022-12-11T07:21:37;76.53;;;26.87;;
5460;SDS011;2753;49.196;8.286;2022-12-11T07:24:02;84.00;;;32.27;;
5460;SDS011;2753;49.196;8.286;2022-12-11T07:26:28;99.83;;;33.70;;
5460;SDS011;2753;49.196;8.286;2022-12-11T07:28:57;88.80;;;32.10;;
5460;SDS011;2753;49.196;8.286;2022-12-11T07:36:35;74.60;;;27.40;;
5460;SDS011;2753;49.196;8.286;2022-12-11T07:39:00;88.23;;;29.70;;
5460;SDS011;2753;49.196;8.286;2022-12-11T07:41:26;77.63;;;30.97;;
5460;SDS011;2753;49.196;8.286;2022-12-11T07:43:53;71.73;;;28.00;;
5460;SDS011;2753;49.196;8.286;2022-12-11T07:59:16;117.43;;;41.57;;
5460;SDS011;2753;49.196;8.286;2022-12-11T08:06:54;82.03;;;30.13;;
5460;SDS011;2753;49.196;8.286;2022-12-11T08:09:20;79.67;;;27.60;;
5460;SDS011;2753;49.196;8.286;2022-12-11T08:11:50;75.33;;;28.03;;
5460;SDS011;2753;49.196;8.286;2022-12-11T08:14:24;71.03;;;27.33;;
5460;SDS011;2753;49.196;8.286;2022-12-11T08:16:50;71.23;;;26.70;;
5460;SDS011;2753;49.196;8.286;2022-12-11T08:21:43;73.03;;;26.77;;
5460;SDS011;2753;49.196;8.286;2022-12-11T08:24:09;79.10;;;27.67;;
5460;SDS011;2753;49.196;8.286;2022-12-11T08:26:35;77.43;;;28.17;;
5460;SDS011;2753;49.196;8.286;2022-12-11T08:29:01;72.57;;;25.43;;
5460;SDS011;2753;49.196;8.286;2022-12-11T08:31:27;74.50;;;26.10;;
5460;SDS011;2753;49.196;8.286;2022-12-11T08:33:53;71.93;;;25.43;;
5460;SDS011;2753;49.196;8.286;2022-12-11T08:36:20;68.83;;;25.97;;
5460;SDS011;2753;49.196;8.286;2022-12-11T08:38:47;83.23;;;25.83;;
5460;SDS011;2753;49.196;8.286;2022-12-11T08:41:23;70.47;;;25.60;;
5460;SDS011;2753;49.196;8.286;2022-12-11T08:43:54;109.80;;;39.40;;
5460;SDS011;2753;49.196;8.286;2022-12-11T08:46:22;87.13;;;30.30;;
5460;SDS011;2753;49.196;8.286;2022-12-11T08:48:49;74.57;;;28.90;;
5460;SDS011;2753;49.196;8.286;2022-12-11T08:51:17;91.67;;;32.20;;
5460;SDS011;2753;49.196;8.286;2022-12-11T08:53:44;79.33;;;29.90;;
5460;SDS011;2753;49.196;8.286;2022-12-11T08:56:11;83.70;;;31.43;;
5460;SDS011;2753;49.196;8.286;2022-12-11T08:58:39;90.50;;;30.47;;
5460;SDS011;2753;49.196;8.286;2022-12-11T09:01:07;96.73;;;34.83;;
5460;SDS011;2753;49.196;8.286;2022-12-11T09:03:35;86.20;;;31.70;;
5460;SDS011;2753;49.196;8.286;2022-12-11T09:06:03;79.77;;;28.37;;
5460;SDS011;2753;49.196;8.286;2022-12-11T09:08:36;87.77;;;29.93;;
5460;SDS011;2753;49.196;8.286;2022-12-11T09:11:08;71.47;;;25.33;;
5460;SDS011;2753;49.196;8.286;2022-12-11T09:13:36;70.33;;;26.73;;
5460;SDS011;2753;49.196;8.286;2022-12-11T09:16:03;79.77;;;31.90;;
5460;SDS011;2753;49.196;8.286;2022-12-11T09:18:34;81.70;;;28.80;;
5460;SDS011;2753;49.196;8.286;2022-12-11T09:21:02;86.97;;;30.27;;
5460;SDS011;2753;49.196;8.286;2022-12-11T09:23:29;88.20;;;32.00;;
5460;SDS011;2753;49.196;8.286;2022-12-11T09:25:56;86.20;;;30.80;;
5460;SDS011;2753;49.196;8.286;2022-12-11T09:28:22;76.60;;;29.47;;
5460;SDS011;2753;49.196;8.286;2022-12-11T09:30:48;67.53;;;25.23;;
5460;SDS011;2753;49.196;8.286;2022-12-11T09:33:14;68.03;;;27.70;;
5460;SDS011;2753;49.196;8.286;2022-12-11T09:35:40;108.10;;;25.67;;
5460;SDS011;2753;49.196;8.286;2022-12-11T09:38:05;77.50;;;28.50;;
5460;SDS011;2753;49.196;8.286;2022-12-11T09:40:31;66.73;;;25.00;;
5460;SDS011;2753;49.196;8.286;2022-12-11T09:43:02;63.63;;;24.67;;
5460;SDS011;2753;49.196;8.286;2022-12-11T09:45:37;57.83;;;23.93;;
5460;SDS011;2753;49.196;8.286;2022-12-11T09:48:03;62.80;;;23.80;;
5460;SDS011;2753;49.196;8.286;2022-12-11T09:50:31;57.27;;;21.07;;
5460;SDS011;2753;49.196;8.286;2022-12-11T09:53:06;58.73;;;22.90;;
5460;SDS011;2753;49.196;8.286;2022-12-11T09:55:48;59.90;;;20.43;;
5460;SDS011;2753;49.196;8.286;2022-12-11T09:58:24;58.70;;;22.10;;
5460;SDS011;2753;49.196;8.286;2022-12-11T10:01:07;54.70;;;20.83;;
5460;SDS011;2753;49.196;8.286;2022-12-11T10:06:42;57.10;;;21.43;;
5460;SDS011;2753;49.196;8.286;2022-12-11T10:09:21;66.57;;;25.10;;
5460;SDS011;2753;49.196;8.286;2022-12-11T10:12:39;66.30;;;24.97;;
5460;SDS011;2753;49.196;8.286;2022-12-11T10:14:50;60.13;;;21.47;;
5460;SDS011;2753;49.196;8.286;2022-12-11T10:17:26;59.43;;;22.63;;
5460;SDS011;2753;49.196;8.286;2022-12-11T10:19:55;60.13;;;22.17;;
5460;SDS011;2753;49.196;8.286;2022-12-11T10:22:29;48.13;;;20.43;;
5460;SDS011;2753;49.196;8.286;2022-12-11T10:25:18;61.73;;;23.07;;
5460;SDS011;2753;49.196;8.286;2022-12-11T10:27:50;52.93;;;21.90;;
5460;SDS011;2753;49.196;8.286;2022-12-11T10:30:18;46.70;;;19.43;;
5460;SDS011;2753;49.196;8.286;2022-12-11T10:32:51;61.30;;;23.20;;
5460;SDS011;2753;49.196;8.286;2022-12-11T10:35:30;45.07;;;18.97;;
5460;SDS011;2753;49.196;8.286;2022-12-11T10:38:19;55.47;;;19.67;;
5460;SDS011;2753;49.196;8.286;2022-12-11T10:40:51;56.63;;;21.87;;
5460;SDS011;2753;49.196;8.286;2022-12-11T10:43:35;50.73;;;21.87;;
5460;SDS011;2753;49.196;8.286;2022-12-11T10:46:05;48.20;;;17.93;;
5460;SDS011;2753;49.196;8.286;2022-12-11T10:48:51;59.23;;;23.10;;
5460;SDS011;2753;49.196;8.286;2022-12-11T10:51:21;41.87;;;19.23;;
5460;SDS011;2753;49.196;8.286;2022-12-11T10:54:16;58.10;;;21.97;;
5460;SDS011;2753;49.196;8.286;2022-12-11T10:56:54;56.23;;;23.30;;
5460;SDS011;2753;49.196;8.286;2022-12-11T10:59:33;51.37;;;21.30;;
5460;SDS011;2753;49.196;8.286;2022-12-11T11:04:49;57.67;;;22.77;;
5460;SDS011;2753;49.196;8.286;2022-12-11T11:07:20;46.87;;;19.43;;
5460;SDS011;2753;49.196;8.286;2022-12-11T11:09:48;47.87;;;19.20;;
5460;SDS011;2753;49.196;8.286;2022-12-11T11:12:21;44.90;;;19.97;;
5460;SDS011;2753;49.196;8.286;2022-12-11T11:15:08;87.77;;;34.77;;
5460;SDS011;2753;49.196;8.286;2022-12-11T11:17:46;50.77;;;23.87;;
5460;SDS011;2753;49.196;8.286;2022-12-11T11:20:20;60.30;;;21.33;;
5460;SDS011;2753;49.196;8.286;2022-12-11T11:22:49;57.90;;;22.17;;
5460;SDS011;2753;49.196;8.286;2022-12-11T11:25:21;53.87;;;19.90;;
5460;SDS011;2753;49.196;8.286;2022-12-11T11:27:52;57.47;;;22.13;;
5460;SDS011;2753;49.196;8.286;2022-12-11T11:30:21;54.77;;;22.80;;
5460;SDS011;2753;49.196;8.286;2022-12-11T11:33:34;52.87;;;22.47;;
5460;SDS011;2753;49.196;8.286;2022-12-11T11:35:51;66.03;;;24.37;;
5460;SDS011;2753;49.196;8.286;2022-12-11T11:38:24;55.43;;;26.63;;
5460;SDS011;2753;49.196;8.286;2022-12-11T11:51:14;52.60;;;21.50;;
5460;SDS011;2753;49.196;8.286;2022-12-11T11:53:40;53.03;;;20.27;;
5460;SDS011;2753;49.196;8.286;2022-12-11T12:01:44;57.83;;;22.70;;
5460;SDS011;2753;49.196;8.286;2022-12-11T12:04:10;61.80;;;23.57;;
5460;SDS011;2753;49.196;8.286;2022-12-11T12:06:48;61.33;;;23.10;;
5460;SDS011;2753;49.196;8.286;2022-12-11T12:18:34;57.17;;;22.83;;
5460;SDS011;2753;49.196;8.286;2022-12-11T12:21:29;59.33;;;24.10;;
5460;SDS011;2753;49.196;8.286;2022-12-11T12:40:52;59.50;;;24.73;;
5460;SDS011;2753;49.196;8.286;2022-12-11T12:46:10;58.33;;;24.33;;
5460;SDS011;2753;49.196;8.286;2022-12-11T12:48:48;99.83;;;31.27;;
5460;SDS011;2753;49.196;8.286;2022-12-11T12:51:15;69.33;;;29.40;;
5460;SDS011;2753;49.196;8.286;2022-12-11T12:53:44;97.97;;;32.87;;
5460;SDS011;2753;49.196;8.286;2022-12-11T12:56:17;127.30;;;43.67;;
5460;SDS011;2753;49.196;8.286;2022-12-11T12:58:44;86.87;;;35.10;;
5460;SDS011;2753;49.196;8.286;2022-12-11T13:01:18;77.87;;;29.90;;
5460;SDS011;2753;49.196;8.286;2022-12-11T13:03:50;95.93;;;49.20;;
5460;SDS011;2753;49.196;8.286;2022-12-11T13:09:09;75.50;;;29.50;;
5460;SDS011;2753;49.196;8.286;2022-12-11T13:11:39;91.53;;;35.47;;
5460;SDS011;2753;49.196;8.286;2022-12-11T13:19:41;70.67;;;31.20;;
5460;SDS011;2753;49.196;8.286;2022-12-11T13:24:47;59.57;;;25.83;;
5460;SDS011;2753;49.196;8.286;2022-12-11T13:35:42;66.87;;;25.63;;
5460;SDS011;2753;49.196;8.286;2022-12-11T13:38:15;60.63;;;24.90;;
5460;SDS011;2753;49.196;8.286;2022-12-11T13:40:43;62.20;;;25.63;;
5460;SDS011;2753;49.196;8.286;2022-12-11T13:43:27;59.70;;;26.40;;
5460;SDS011;2753;49.196;8.286;2022-12-11T13:45:58;54.00;;;26.03;;
5460;SDS011;2753;49.196;8.286;2022-12-11T13:48:38;63.40;;;24.63;;
5460;SDS011;2753;49.196;8.286;2022-12-11T13:51:12;60.50;;;23.37;;
5460;SDS011;2753;49.196;8.286;2022-12-11T13:54:00;64.03;;;25.60;;
5460;SDS011;2753;49.196;8.286;2022-12-11T13:56:27;63.03;;;26.00;;
5460;SDS011;2753;49.196;8.286;2022-12-11T13:58:53;56.73;;;26.43;;
5460;SDS011;2753;49.196;8.286;2022-12-11T14:01:23;61.33;;;25.03;;
5460;SDS011;2753;49.196;8.286;2022-12-11T14:04:11;56.60;;;22.97;;
5460;SDS011;2753;49.196;8.286;2022-12-11T14:06:47;63.97;;;27.20;;
5460;SDS011;2753;49.196;8.286;2022-12-11T14:09:18;63.00;;;25.37;;
5460;SDS011;2753;49.196;8.286;2022-12-11T14:11:51;60.90;;;23.63;;
5460;SDS011;2753;49.196;8.286;2022-12-11T14:14:19;59.43;;;25.40;;
5460;SDS011;2753;49.196;8.286;2022-12-11T14:17:05;62.80;;;25.50;;
5460;SDS011;2753;49.196;8.286;2022-12-11T14:19:36;56.37;;;24.57;;
5460;SDS011;2753;49.196;8.286;2022-12-11T14:22:04;61.87;;;27.60;;
5460;SDS011;2753;49.196;8.286;2022-12-11T14:24:31;58.47;;;26.27;;
5460;SDS011;2753;49.196;8.286;2022-12-11T14:26:57;70.10;;;28.53;;
5460;SDS011;2753;49.196;8.286;2022-12-11T14:31:50;59.67;;;24.80;;
5460;SDS011;2753;49.196;8.286;2022-12-11T14:34:28;61.73;;;23.30;;
5460;SDS011;2753;49.196;8.286;2022-12-11T14:37:07;62.80;;;23.77;;
5460;SDS011;2753;49.196;8.286;2022-12-11T14:39:39;56.83;;;24.90;;
5460;SDS011;2753;49.196;8.286;2022-12-11T14:42:11;54.07;;;23.97;;
5460;SDS011;2753;49.196;8.286;2022-12-11T14:45:05;54.13;;;22.87;;
5460;SDS011;2753;49.196;8.286;2022-12-11T14:47:38;51.70;;;22.97;;
5460;SDS011;2753;49.196;8.286;2022-12-11T14:50:10;53.57;;;23.37;;
5460;SDS011;2753;49.196;8.286;2022-12-11T14:52:46;65.20;;;24.20;;
5460;SDS011;2753;49.196;8.286;2022-12-11T14:55:27;51.87;;;22.20;;
5460;SDS011;2753;49.196;8.286;2022-12-11T14:58:18;71.23;;;30.97;;
5460;SDS011;2753;49.196;8.286;2022-12-11T15:03:39;70.03;;;28.73;;
5460;SDS011;2753;49.196;8.286;2022-12-11T15:09:08;64.83;;;26.30;;
5460;SDS011;2753;49.196;8.286;2022-12-11T15:11:45;66.17;;;27.90;;
5460;SDS011;2753;49.196;8.286;2022-12-11T15:14:18;69.50;;;26.97;;
5460;SDS011;2753;49.196;8.286;2022-12-11T15:16:57;64.20;;;28.70;;
5460;SDS011;2753;49.196;8.286;2022-12-11T15:19:26;87.23;;;36.47;;
5460;SDS011;2753;49.196;8.286;2022-12-11T15:21:59;171.83;;;61.77;;
5460;SDS011;2753;49.196;8.286;2022-12-11T15:24:33;84.20;;;33.60;;
5460;SDS011;2753;49.196;8.286;2022-12-11T15:27:04;112.80;;;46.67;;
5460;SDS011;2753;49.196;8.286;2022-12-11T15:29:37;120.00;;;46.63;;
5460;SDS011;2753;49.196;8.286;2022-12-11T15:34:41;140.93;;;54.50;;
5460;SDS011;2753;49.196;8.286;2022-12-11T15:37:16;101.57;;;41.00;;
5460;SDS011;2753;49.196;8.286;2022-12-11T15:39:58;159.83;;;60.77;;
5460;SDS011;2753;49.196;8.286;2022-12-11T15:44:53;91.73;;;40.10;;
5460;SDS011;2753;49.196;8.286;2022-12-11T15:47:20;86.40;;;37.87;;
5460;SDS011;2753;49.196;8.286;2022-12-11T15:49:48;84.07;;;31.40;;
5460;SDS011;2753;49.196;8.286;2022-12-11T15:52:14;73.83;;;29.50;;
5460;SDS011;2753;49.196;8.286;2022-12-11T15:54:40;63.90;;;29.07;;
5460;SDS011;2753;49.196;8.286;2022-12-11T15:57:08;64.83;;;28.80;;
5460;SDS011;2753;49.196;8.286;2022-12-11T15:59:38;65.47;;;27.17;;
5460;SDS011;2753;49.196;8.286;2022-12-11T16:02:08;66.23;;;29.10;;
5460;SDS011;2753;49.196;8.286;2022-12-11T16:04:37;71.07;;;31.10;;
5460;SDS011;2753;49.196;8.286;2022-12-11T16:07:04;66.73;;;29.43;;
5460;SDS011;2753;49.196;8.286;2022-12-11T16:09:36;67.63;;;27.50;;
5460;SDS011;2753;49.196;8.286;2022-12-11T16:12:01;74.50;;;29.40;;
5460;SDS011;2753;49.196;8.286;2022-12-11T16:14:27;86.03;;;34.80;;
5460;SDS011;2753;49.196;8.286;2022-12-11T16:16:53;89.27;;;34.90;;
5460;SDS011;2753;49.196;8.286;2022-12-11T16:19:24;76.37;;;35.10;;
5460;SDS011;2753;49.196;8.286;2022-12-11T16:21:51;83.57;;;29.70;;
5460;SDS011;2753;49.196;8.286;2022-12-11T16:24:16;61.17;;;27.70;;
5460;SDS011;2753;49.196;8.286;2022-12-11T16:26:42;75.43;;;30.27;;
5460;SDS011;2753;49.196;8.286;2022-12-11T16:29:08;78.27;;;30.00;;
5460;SDS011;2753;49.196;8.286;2022-12-11T16:31:33;74.53;;;30.23;;
5460;SDS011;2753;49.196;8.286;2022-12-11T16:33:59;74.53;;;30.53;;
5460;SDS011;2753;49.196;8.286;2022-12-11T16:36:25;68.43;;;28.43;;
5460;SDS011;2753;49.196;8.286;2022-12-11T16:38:51;66.67;;;28.13;;
5460;SDS011;2753;49.196;8.286;2022-12-11T16:41:16;86.30;;;33.13;;
5460;SDS011;2753;49.196;8.286;2022-12-11T16:43:42;93.33;;;37.27;;
5460;SDS011;2753;49.196;8.286;2022-12-11T16:46:07;81.60;;;36.13;;
5460;SDS011;2753;49.196;8.286;2022-12-11T16:48:33;74.33;;;31.50;;
5460;SDS011;2753;49.196;8.286;2022-12-11T16:50:59;67.80;;;30.93;;
5460;SDS011;2753;49.196;8.286;2022-12-11T16:53:24;67.60;;;29.13;;
5460;SDS011;2753;49.196;8.286;2022-12-11T16:55:50;73.30;;;29.27;;
5460;SDS011;2753;49.196;8.286;2022-12-11T16:58:16;78.03;;;34.03;;
5460;SDS011;2753;49.196;8.286;2022-12-11T17:00:47;76.37;;;32.57;;
5460;SDS011;2753;49.196;8.286;2022-12-11T17:03:13;92.13;;;33.63;;
5460;SDS011;2753;49.196;8.286;2022-12-11T17:05:40;74.27;;;30.30;;